createdAt,value
2023-08-15T00:00:43.436Z,90.72
2023-08-15T00:03:07.633Z,95.55
2023-08-15T00:05:32.518Z,100.00
2023-08-15T00:07:58.893Z,100.00
2023-08-15T00:10:22.486Z,99.20
2023-08-15T00:12:46.091Z,97.02
2023-08-15T00:15:12.758Z,93.92
2023-08-15T00:17:36.430Z,94.45
2023-08-15T00:20:00.052Z,92.83
2023-08-15T00:22:23.764Z,93.72
2023-08-15T00:24:47.344Z,91.48
2023-08-15T00:27:11.141Z,94.42
2023-08-15T00:29:34.798Z,97.75
2023-08-15T00:31:59.883Z,92.62
2023-08-15T00:34:23.554Z,95.34
2023-08-15T00:36:47.317Z,95.58
2023-08-15T00:39:10.948Z,97.25
2023-08-15T00:41:34.696Z,99.38
2023-08-15T00:43:59.763Z,98.39
2023-08-15T00:46:24.395Z,99.10
2023-08-15T00:48:49.436Z,96.18
2023-08-15T00:51:14.241Z,98.33
2023-08-15T00:53:38.370Z,97.80
2023-08-15T00:56:02.612Z,100.00
2023-08-15T00:58:26.926Z,100.00
2023-08-15T01:00:51.514Z,100.00
2023-08-15T01:03:15.338Z,100.00
2023-08-15T01:05:41.784Z,99.37
2023-08-15T01:08:06.185Z,93.80
2023-08-15T01:10:29.865Z,96.36
2023-08-15T01:13:02.039Z,100.00
2023-08-15T01:15:28.814Z,100.00
2023-08-15T01:18:06.916Z,100.00
2023-08-15T01:20:35.422Z,99.72
2023-08-15T01:23:03.729Z,99.97
2023-08-15T01:25:29.937Z,100.00
2023-08-15T01:27:53.642Z,100.00
2023-08-15T01:30:19.871Z,99.68
2023-08-15T01:32:52.072Z,95.94
2023-08-15T01:35:40.361Z,97.33
2023-08-15T01:38:12.089Z,95.21
2023-08-15T01:40:40.016Z,100.00
2023-08-15T01:43:05.524Z,98.63
2023-08-15T01:45:30.196Z,97.59
2023-08-15T01:47:54.277Z,94.84
2023-08-15T01:50:18.176Z,100.00
2023-08-15T01:52:41.887Z,99.64
2023-08-15T01:55:06.348Z,98.66
2023-08-15T01:57:31.378Z,96.27
2023-08-15T01:59:55.066Z,94.13
2023-08-15T02:02:18.746Z,91.76
2023-08-15T02:04:42.444Z,91.27
2023-08-15T02:07:06.109Z,93.02
2023-08-15T02:09:29.845Z,92.48
2023-08-15T02:11:53.941Z,91.63
2023-08-15T02:14:19.046Z,88.68
2023-08-15T02:16:42.751Z,91.13
2023-08-15T02:19:06.628Z,92.63
2023-08-15T02:21:30.240Z,89.61
2023-08-15T02:23:54.053Z,92.96
2023-08-15T02:26:17.948Z,91.50
2023-08-15T02:28:42.265Z,89.99
2023-08-15T02:31:07.323Z,88.47
2023-08-15T02:33:31.049Z,91.86
2023-08-15T02:35:55.755Z,88.06
2023-08-15T02:38:21.177Z,90.23
2023-08-15T02:40:44.945Z,91.31
2023-08-15T02:43:09.014Z,87.77
2023-08-15T02:45:33.304Z,90.56
2023-08-15T02:48:00.168Z,90.80
2023-08-15T02:50:23.846Z,89.67
2023-08-15T02:52:47.587Z,87.55
2023-08-15T02:55:11.394Z,90.78
2023-08-15T02:57:35.440Z,94.07
2023-08-15T02:59:59.180Z,89.43
2023-08-15T03:02:23.768Z,87.87
2023-08-15T03:04:48.815Z,86.87
2023-08-15T03:07:12.562Z,88.24
2023-08-15T03:09:36.199Z,89.00
2023-08-15T03:12:00.619Z,88.23
2023-08-15T03:14:24.306Z,91.21
2023-08-15T03:16:48.069Z,88.99
2023-08-15T03:19:11.802Z,89.21
2023-08-15T03:21:37.260Z,87.77
2023-08-15T03:24:01.006Z,87.10
2023-08-15T03:26:27.102Z,87.26
2023-08-15T03:28:53.432Z,87.69
2023-08-15T03:31:18.061Z,89.78
2023-08-15T03:33:47.088Z,93.37
2023-08-15T03:36:10.976Z,89.47
2023-08-15T03:38:36.617Z,87.73
2023-08-15T03:41:05.231Z,88.97
2023-08-15T03:43:30.006Z,89.99
2023-08-15T03:45:53.908Z,89.81
2023-08-15T03:48:17.583Z,89.42
2023-08-15T03:50:41.856Z,90.62
2023-08-15T03:53:06.667Z,90.30
2023-08-15T03:55:34.264Z,88.31
2023-08-15T03:57:58.254Z,89.11
2023-08-15T04:00:22.501Z,88.59
2023-08-15T04:02:46.244Z,89.07
2023-08-15T04:05:10.198Z,89.68
2023-08-15T04:07:33.819Z,91.28
2023-08-15T04:09:57.651Z,89.84
2023-08-15T04:12:22.698Z,89.21
2023-08-15T04:14:47.116Z,90.45
2023-08-15T04:17:10.894Z,93.30
2023-08-15T04:19:34.635Z,96.95
2023-08-15T04:21:58.619Z,90.55
2023-08-15T04:24:22.890Z,96.26
2023-08-15T04:26:46.547Z,93.29
2023-08-15T04:29:12.211Z,96.79
2023-08-15T04:31:35.908Z,93.74
2023-08-15T04:34:01.516Z,91.62
2023-08-15T04:36:25.245Z,91.30
2023-08-15T04:38:49.090Z,93.27
2023-08-15T04:41:13.375Z,95.73
2023-08-15T04:43:37.179Z,95.05
2023-08-15T04:46:02.988Z,98.17
2023-08-15T04:48:26.986Z,100.00
2023-08-15T04:50:51.689Z,100.00
2023-08-15T04:53:15.424Z,100.00
2023-08-15T04:55:39.090Z,100.00
2023-08-15T04:58:03.685Z,100.00
2023-08-15T05:00:27.441Z,100.00
2023-08-15T05:02:52.608Z,100.00
2023-08-15T05:05:17.143Z,100.00
2023-08-15T05:07:41.850Z,100.00
2023-08-15T05:10:07.832Z,100.00
2023-08-15T05:12:32.914Z,100.00
2023-08-15T05:14:56.743Z,100.00
2023-08-15T05:17:20.825Z,100.00
2023-08-15T05:19:46.435Z,100.00
2023-08-15T05:22:10.531Z,100.00
2023-08-15T05:24:34.174Z,100.00
2023-08-15T05:26:57.955Z,100.00
2023-08-15T05:29:21.796Z,100.00
2023-08-15T05:31:45.562Z,100.00
2023-08-15T05:34:11.410Z,100.00
2023-08-15T05:36:36.707Z,100.00
2023-08-15T05:39:05.381Z,100.00
2023-08-15T05:41:30.764Z,100.00
2023-08-15T05:43:54.472Z,100.00
2023-08-15T05:46:18.211Z,100.00
2023-08-15T05:48:42.261Z,100.00
2023-08-15T05:51:06.039Z,100.00
2023-08-15T05:53:31.060Z,100.00
2023-08-15T05:55:54.896Z,99.92
2023-08-15T05:58:18.768Z,97.79
2023-08-15T06:00:43.442Z,96.77
2023-08-15T06:03:07.899Z,93.52
2023-08-15T06:05:32.827Z,92.09
2023-08-15T06:07:56.634Z,91.79
2023-08-15T06:10:21.815Z,88.54
2023-08-15T06:12:45.420Z,86.07
2023-08-15T06:15:09.923Z,83.41
2023-08-15T06:17:33.637Z,82.09
2023-08-15T06:19:57.529Z,77.74
2023-08-15T06:22:21.229Z,77.06
2023-08-15T06:24:45.046Z,75.61
2023-08-15T06:27:10.355Z,73.63
2023-08-15T06:29:34.241Z,72.35
2023-08-15T06:32:00.682Z,70.85
2023-08-15T06:34:24.335Z,71.30
2023-08-15T06:36:48.229Z,69.72
2023-08-15T06:39:12.867Z,69.94
2023-08-15T06:41:36.669Z,70.63
2023-08-15T06:44:02.400Z,69.22
2023-08-15T06:46:26.123Z,66.10
2023-08-15T06:48:50.036Z,64.57
2023-08-15T06:51:13.662Z,68.68
2023-08-15T06:53:37.306Z,66.63
2023-08-15T06:56:01.152Z,67.26
2023-08-15T06:58:24.838Z,67.44
2023-08-15T07:00:49.908Z,66.77
2023-08-15T07:03:14.736Z,68.73
2023-08-15T07:05:38.432Z,69.05
2023-08-15T07:08:04.470Z,66.21
2023-08-15T07:10:28.298Z,68.97
2023-08-15T07:12:52.013Z,74.19
2023-08-15T07:15:15.695Z,72.22
2023-08-15T07:17:41.618Z,71.37
2023-08-15T07:20:07.081Z,72.82
2023-08-15T07:22:30.719Z,71.42
2023-08-15T07:24:54.436Z,72.11
2023-08-15T07:27:18.236Z,72.74
2023-08-15T07:29:41.903Z,70.40
2023-08-15T07:32:07.421Z,72.28
2023-08-15T07:34:32.589Z,71.04
2023-08-15T07:36:56.482Z,72.58
2023-08-15T07:39:20.179Z,72.80
2023-08-15T07:41:44.550Z,71.42
2023-08-15T07:44:08.615Z,73.80
2023-08-15T07:46:32.368Z,75.73
2023-08-15T07:48:58.204Z,74.42
2023-08-15T07:51:23.583Z,74.89
2023-08-15T07:53:47.227Z,73.49
2023-08-15T07:56:10.922Z,73.89
2023-08-15T07:58:36.635Z,73.90
2023-08-15T08:01:00.354Z,71.57
2023-08-15T08:03:24.003Z,72.78
2023-08-15T08:05:50.009Z,75.01
2023-08-15T08:08:15.220Z,73.12
2023-08-15T08:10:39.002Z,73.89
2023-08-15T08:13:02.713Z,75.22
2023-08-15T08:15:26.531Z,72.58
2023-08-15T08:17:50.391Z,73.40
2023-08-15T08:20:14.569Z,72.99
2023-08-15T08:22:38.214Z,71.54
2023-08-15T08:25:18.501Z,70.68
2023-08-15T08:27:42.224Z,72.58
2023-08-15T08:30:07.698Z,73.75
2023-08-15T08:32:31.407Z,70.30
2023-08-15T08:34:55.022Z,73.15
2023-08-15T08:37:18.700Z,72.18
2023-08-15T08:39:42.593Z,71.55
2023-08-15T08:42:08.079Z,72.09
2023-08-15T08:44:34.176Z,71.15
2023-08-15T08:46:58.802Z,71.08
2023-08-15T08:49:23.107Z,72.38
2023-08-15T08:51:48.173Z,72.80
2023-08-15T08:54:11.819Z,73.05
2023-08-15T08:56:35.956Z,70.08
2023-08-15T08:59:04.549Z,72.14
2023-08-15T09:01:32.332Z,71.05
2023-08-15T09:03:57.460Z,72.23
2023-08-15T09:06:21.315Z,72.52
2023-08-15T09:08:44.879Z,70.32
2023-08-15T09:11:08.787Z,71.47
2023-08-15T09:13:32.451Z,70.43
2023-08-15T09:15:59.561Z,69.23
2023-08-15T09:18:24.226Z,71.78
2023-08-15T09:20:47.967Z,68.97
2023-08-15T09:23:11.833Z,69.40
2023-08-15T09:25:38.245Z,70.61
2023-08-15T09:28:02.132Z,68.33
2023-08-15T09:30:25.785Z,68.72
2023-08-15T09:32:51.130Z,69.29
2023-08-15T09:35:16.734Z,70.22
2023-08-15T09:37:44.186Z,66.99
2023-08-15T09:40:11.810Z,70.62
2023-08-15T09:42:35.471Z,67.47
2023-08-15T09:44:59.496Z,65.79
2023-08-15T09:47:24.169Z,62.48
2023-08-15T09:49:53.489Z,65.11
2023-08-15T09:52:18.094Z,62.31
2023-08-15T09:54:43.884Z,62.65
2023-08-15T09:57:07.658Z,62.80
2023-08-15T09:59:31.687Z,65.21
2023-08-15T10:01:56.303Z,65.27
2023-08-15T10:04:22.614Z,63.09
2023-08-15T10:06:48.303Z,63.54
2023-08-15T10:09:13.712Z,62.13
2023-08-15T10:11:42.498Z,62.74
2023-08-15T10:14:06.639Z,63.71
2023-08-15T10:16:30.678Z,62.53
2023-08-15T10:18:56.584Z,62.07
2023-08-15T10:21:20.257Z,64.33
2023-08-15T10:23:45.327Z,60.26
2023-08-15T10:26:09.317Z,62.31
2023-08-15T10:28:36.497Z,60.55
2023-08-15T10:31:00.146Z,60.76
2023-08-15T10:33:26.380Z,63.71
2023-08-15T10:35:53.236Z,59.47
2023-08-15T10:38:18.345Z,60.81
2023-08-15T10:40:46.004Z,61.60
2023-08-15T10:43:12.306Z,61.95
2023-08-15T10:45:38.971Z,63.94
2023-08-15T10:48:05.000Z,63.75
2023-08-15T10:50:29.955Z,65.74
2023-08-15T10:53:00.061Z,63.68
2023-08-15T10:55:28.916Z,61.59
2023-08-15T10:57:54.623Z,62.47
2023-08-15T11:00:20.226Z,60.38
2023-08-15T11:02:43.915Z,57.72
2023-08-15T11:05:08.703Z,59.34
2023-08-15T11:07:32.470Z,58.42
2023-08-15T11:09:56.084Z,58.92
2023-08-15T11:12:20.163Z,59.74
2023-08-15T11:14:45.227Z,58.63
2023-08-15T11:17:09.107Z,59.60
2023-08-15T11:19:35.326Z,55.69
2023-08-15T11:22:00.100Z,54.95
2023-08-15T11:24:24.424Z,53.79
2023-08-15T11:26:49.172Z,53.51
2023-08-15T11:29:14.246Z,53.92
2023-08-15T11:31:40.753Z,57.76
2023-08-15T11:34:05.285Z,51.25
2023-08-15T11:36:28.981Z,54.85
2023-08-15T11:38:53.120Z,54.55
2023-08-15T11:41:16.922Z,54.26
2023-08-15T11:43:40.989Z,50.04
2023-08-15T11:46:05.160Z,53.78
2023-08-15T11:48:31.353Z,52.22
2023-08-15T11:50:55.042Z,55.98
2023-08-15T11:53:20.474Z,52.36
2023-08-15T11:55:45.959Z,49.55
2023-08-15T11:58:25.156Z,50.44
2023-08-15T12:00:48.875Z,52.86
2023-08-15T12:03:12.852Z,52.31
2023-08-15T12:05:37.980Z,51.26
2023-08-15T12:08:01.600Z,52.26
2023-08-15T12:10:26.163Z,49.50
2023-08-15T12:12:50.019Z,51.30
2023-08-15T12:15:15.703Z,46.03
2023-08-15T12:17:40.490Z,45.09
2023-08-15T12:20:06.203Z,45.08
2023-08-15T12:22:31.428Z,49.53
2023-08-15T12:24:55.118Z,45.69
2023-08-15T12:27:19.580Z,44.41
2023-08-15T12:29:44.719Z,44.95
2023-08-15T12:32:27.552Z,49.77
2023-08-15T12:34:51.254Z,46.94
2023-08-15T12:37:14.920Z,45.07
2023-08-15T12:39:39.947Z,46.48
2023-08-15T12:42:04.306Z,45.80
2023-08-15T12:44:28.205Z,46.38
2023-08-15T12:46:53.686Z,46.28
2023-08-15T12:49:17.331Z,43.78
2023-08-15T12:51:42.058Z,43.29
2023-08-15T12:54:06.444Z,43.74
2023-08-15T12:56:31.541Z,42.64
2023-08-15T12:58:55.153Z,44.03
2023-08-15T13:01:18.867Z,43.39
2023-08-15T13:03:42.531Z,43.67
2023-08-15T13:06:06.236Z,46.12
2023-08-15T13:08:29.869Z,45.72
2023-08-15T13:10:53.570Z,45.75
2023-08-15T13:13:18.585Z,42.58
2023-08-15T13:15:42.264Z,42.11
2023-08-15T13:18:07.111Z,42.50
2023-08-15T13:20:30.939Z,46.49
2023-08-15T13:22:54.782Z,46.54
2023-08-15T13:25:18.652Z,47.35
2023-08-15T13:27:42.327Z,41.60
2023-08-15T13:30:09.569Z,45.51
2023-08-15T13:32:35.237Z,47.40
2023-08-15T13:34:59.031Z,43.14
2023-08-15T13:37:22.643Z,44.66
2023-08-15T13:39:46.295Z,41.30
2023-08-15T13:42:14.838Z,45.48
2023-08-15T13:44:47.225Z,43.76
2023-08-15T13:47:12.210Z,44.03
2023-08-15T13:49:35.853Z,40.96
2023-08-15T13:51:59.474Z,41.35
2023-08-15T13:54:24.076Z,43.03
2023-08-15T13:56:47.720Z,43.00
2023-08-15T13:59:11.425Z,42.66
2023-08-15T14:01:35.034Z,43.51
2023-08-15T14:04:00.152Z,43.18
2023-08-15T14:06:23.891Z,42.85
2023-08-15T14:08:47.606Z,39.03
2023-08-15T14:11:11.280Z,41.06
2023-08-15T14:13:35.624Z,40.76
2023-08-15T14:15:59.253Z,41.37
2023-08-15T14:18:22.967Z,41.07
2023-08-15T14:20:47.977Z,42.70
2023-08-15T14:23:11.716Z,44.24
2023-08-15T14:25:35.755Z,41.04
2023-08-15T14:27:59.997Z,40.68
2023-08-15T14:30:23.837Z,42.52
2023-08-15T14:32:47.668Z,42.68
2023-08-15T14:35:11.392Z,41.59
2023-08-15T14:37:37.156Z,40.60
2023-08-15T14:40:00.883Z,42.30
2023-08-15T14:42:24.812Z,41.25
2023-08-15T14:44:48.509Z,41.56
2023-08-15T14:47:12.309Z,39.22
2023-08-15T14:49:35.891Z,39.14
2023-08-15T14:51:59.569Z,41.53
2023-08-15T14:54:24.635Z,40.37
2023-08-15T14:56:48.379Z,41.47
2023-08-15T14:59:11.987Z,41.01
2023-08-15T15:01:35.843Z,38.33
2023-08-15T15:03:59.628Z,37.75
2023-08-15T15:06:23.440Z,40.40
2023-08-15T15:08:47.086Z,40.00
2023-08-15T15:11:12.178Z,41.17
2023-08-15T15:13:35.803Z,42.36
2023-08-15T15:16:00.845Z,41.37
2023-08-15T15:18:24.590Z,42.86
2023-08-15T15:20:48.582Z,44.03
2023-08-15T15:23:12.241Z,41.22
2023-08-15T15:25:36.005Z,42.10
2023-08-15T15:28:01.051Z,43.45
2023-08-15T15:30:24.963Z,41.56
2023-08-15T15:32:48.589Z,43.83
2023-08-15T15:35:13.606Z,44.18
2023-08-15T15:37:37.279Z,44.95
2023-08-15T15:40:02.659Z,45.81
2023-08-15T15:42:26.272Z,45.30
2023-08-15T15:44:51.442Z,45.91
2023-08-15T15:47:15.313Z,46.56
2023-08-15T15:49:39.237Z,47.62
2023-08-15T15:52:02.928Z,46.25
2023-08-15T15:54:26.707Z,46.54
2023-08-15T15:56:50.294Z,46.62
2023-08-15T15:59:14.109Z,48.10
2023-08-15T16:01:39.615Z,48.79
2023-08-15T16:04:03.805Z,49.32
2023-08-15T16:06:28.475Z,49.35
2023-08-15T16:08:52.286Z,50.40
2023-08-15T16:11:15.988Z,50.43
2023-08-15T16:13:39.859Z,51.13
2023-08-15T16:16:03.750Z,50.88
2023-08-15T16:18:28.967Z,51.63
2023-08-15T16:20:52.975Z,53.20
2023-08-15T16:23:17.279Z,52.24
2023-08-15T16:25:40.835Z,54.65
2023-08-15T16:28:04.871Z,55.76
2023-08-15T16:30:29.123Z,55.67
2023-08-15T16:32:54.848Z,55.40
2023-08-15T16:35:20.126Z,55.32
2023-08-15T16:37:46.360Z,55.57
2023-08-15T16:40:11.238Z,55.94
2023-08-15T16:42:34.931Z,57.11
2023-08-15T16:44:58.623Z,56.93
2023-08-15T16:47:23.568Z,56.51
2023-08-15T16:49:47.243Z,56.13
2023-08-15T16:52:12.392Z,57.65
2023-08-15T16:54:36.049Z,56.63
2023-08-15T16:56:59.763Z,55.70
2023-08-15T16:59:23.420Z,57.68
2023-08-15T17:01:47.242Z,56.19
2023-08-15T17:04:11.197Z,57.07
2023-08-15T17:06:35.072Z,58.74
2023-08-15T17:09:00.146Z,56.89
2023-08-15T17:11:23.921Z,58.85
2023-08-15T17:13:48.082Z,58.75
2023-08-15T17:16:11.752Z,59.63
2023-08-15T17:18:35.371Z,59.28
2023-08-15T17:20:59.058Z,58.91
2023-08-15T17:23:22.655Z,58.97
2023-08-15T17:25:49.225Z,61.08
2023-08-15T17:28:13.860Z,59.49
2023-08-15T17:30:37.516Z,60.08
2023-08-15T17:33:01.220Z,60.82
2023-08-15T17:35:25.058Z,60.00
2023-08-15T17:37:48.993Z,61.13
2023-08-15T17:40:14.156Z,60.70
2023-08-15T17:42:39.142Z,59.05
2023-08-15T17:45:02.866Z,59.44
2023-08-15T17:47:26.501Z,60.77
2023-08-15T17:49:50.851Z,60.30
2023-08-15T17:52:14.465Z,61.63
2023-08-15T17:54:38.259Z,62.05
2023-08-15T17:57:01.884Z,61.94
2023-08-15T17:59:26.955Z,63.72
2023-08-15T18:01:50.518Z,61.24
2023-08-15T18:04:14.206Z,62.30
2023-08-15T18:06:38.569Z,63.45
2023-08-15T18:09:02.863Z,62.20
2023-08-15T18:11:26.599Z,63.17
2023-08-15T18:13:50.291Z,64.69
2023-08-15T18:16:15.459Z,63.05
2023-08-15T18:18:39.588Z,63.21
2023-08-15T18:21:03.966Z,64.06
2023-08-15T18:23:27.658Z,63.67
2023-08-15T18:25:51.324Z,63.88
2023-08-15T18:28:15.031Z,64.01
2023-08-15T18:30:38.651Z,64.83
2023-08-15T18:33:03.800Z,66.48
2023-08-15T18:35:27.405Z,68.12
2023-08-15T18:37:51.047Z,65.97
2023-08-15T18:40:17.238Z,68.27
2023-08-15T18:42:40.918Z,66.94
2023-08-15T18:45:05.577Z,68.56
2023-08-15T18:47:29.405Z,69.46
2023-08-15T18:49:54.420Z,69.48
2023-08-15T18:52:18.082Z,70.70
2023-08-15T18:54:41.718Z,71.64
2023-08-15T18:57:05.921Z,71.11
2023-08-15T18:59:29.515Z,70.00
2023-08-15T19:01:53.261Z,73.10
2023-08-15T19:04:16.918Z,70.77
2023-08-15T19:06:41.913Z,68.77
2023-08-15T19:09:06.208Z,69.02
2023-08-15T19:11:29.883Z,71.66
2023-08-15T19:13:53.522Z,69.03
2023-08-15T19:16:17.342Z,70.71
2023-08-15T19:18:41.179Z,71.17
2023-08-15T19:21:04.902Z,71.09
2023-08-15T19:23:29.983Z,72.03
2023-08-15T19:25:53.709Z,71.56
2023-08-15T19:28:17.630Z,70.09
2023-08-15T19:30:42.880Z,69.83
2023-08-15T19:33:07.080Z,70.45
2023-08-15T19:35:30.914Z,71.01
2023-08-15T19:37:54.734Z,71.90
2023-08-15T19:40:19.986Z,70.90
2023-08-15T19:42:45.772Z,71.92
2023-08-15T19:45:11.535Z,70.97
2023-08-15T19:47:35.455Z,72.75
2023-08-15T19:49:59.290Z,73.96
2023-08-15T19:52:23.232Z,73.73
2023-08-15T19:54:47.146Z,72.96
2023-08-15T19:57:12.193Z,73.45
2023-08-15T19:59:36.189Z,71.63
2023-08-15T20:01:59.835Z,71.56
2023-08-15T20:04:24.827Z,71.14
2023-08-15T20:06:48.490Z,71.87
2023-08-15T20:09:13.096Z,72.54
2023-08-15T20:11:36.815Z,72.83
2023-08-15T20:14:01.963Z,72.96
2023-08-15T20:16:26.595Z,74.27
2023-08-15T20:18:50.282Z,74.90
2023-08-15T20:21:14.345Z,75.93
2023-08-15T20:23:38.111Z,76.62
2023-08-15T20:26:02.734Z,77.76
2023-08-15T20:28:26.594Z,78.78
2023-08-15T20:30:51.687Z,77.44
2023-08-15T20:33:15.739Z,79.09
2023-08-15T20:35:39.533Z,78.62
2023-08-15T20:38:03.311Z,79.92
2023-08-15T20:40:26.925Z,79.81
2023-08-15T20:42:50.609Z,81.37
2023-08-15T20:45:15.010Z,80.55
2023-08-15T20:47:40.589Z,82.05
2023-08-15T20:50:04.526Z,82.66
2023-08-15T20:52:28.231Z,82.16
2023-08-15T20:54:51.836Z,82.38
2023-08-15T20:57:15.534Z,80.47
2023-08-15T20:59:39.219Z,82.40
2023-08-15T21:02:03.141Z,81.32
2023-08-15T21:04:28.480Z,83.35
2023-08-15T21:06:53.494Z,83.64
2023-08-15T21:09:17.198Z,83.93
2023-08-15T21:11:41.112Z,82.67
2023-08-15T21:14:04.866Z,82.38
2023-08-15T21:16:28.600Z,84.81
2023-08-15T21:18:52.364Z,83.05
2023-08-15T21:21:17.417Z,83.79
2023-08-15T21:23:41.050Z,87.70
2023-08-15T21:26:04.832Z,88.06
2023-08-15T21:28:28.554Z,87.66
2023-08-15T21:30:56.431Z,87.86
2023-08-15T21:33:21.545Z,88.82
2023-08-15T21:35:45.229Z,87.38
2023-08-15T21:38:10.286Z,89.79
2023-08-15T21:40:35.209Z,88.14
2023-08-15T21:42:58.812Z,88.37
2023-08-15T21:45:22.457Z,85.05
2023-08-15T21:47:46.149Z,85.94
2023-08-15T21:50:11.123Z,88.83
2023-08-15T21:52:34.751Z,87.13
2023-08-15T21:54:59.814Z,87.53
2023-08-15T21:57:23.958Z,87.69
2023-08-15T21:59:48.136Z,88.27
2023-08-15T22:02:11.802Z,86.43
2023-08-15T22:04:35.649Z,89.01
2023-08-15T22:06:59.271Z,89.88
2023-08-15T22:09:23.229Z,89.30
2023-08-15T22:11:48.334Z,86.80
2023-08-15T22:14:12.034Z,85.17
2023-08-15T22:16:35.857Z,89.53
2023-08-15T22:18:59.621Z,88.57
2023-08-15T22:21:23.333Z,88.37
2023-08-15T22:23:47.100Z,88.63
2023-08-15T22:26:13.429Z,88.39
2023-08-15T22:28:38.451Z,88.81
2023-08-15T22:31:02.110Z,90.75
2023-08-15T22:33:25.808Z,85.65
2023-08-15T22:35:49.410Z,86.53
2023-08-15T22:38:13.209Z,86.64
2023-08-15T22:40:36.901Z,85.94
2023-08-15T22:43:00.761Z,83.63
2023-08-15T22:45:26.267Z,83.50
2023-08-15T22:47:50.026Z,83.32
2023-08-15T22:50:13.640Z,84.96
2023-08-15T22:52:37.311Z,82.76
2023-08-15T22:55:00.969Z,81.62
2023-08-15T22:57:24.980Z,83.28
2023-08-15T22:59:48.885Z,82.98
2023-08-15T23:02:14.040Z,85.10
2023-08-15T23:04:37.773Z,83.35
2023-08-15T23:07:01.637Z,84.23
2023-08-15T23:09:25.334Z,85.37
2023-08-15T23:11:49.314Z,85.11
2023-08-15T23:14:12.985Z,83.04
2023-08-15T23:16:36.666Z,85.66
2023-08-15T23:19:01.684Z,84.52
2023-08-15T23:21:25.513Z,83.02
2023-08-15T23:23:49.101Z,87.03
2023-08-15T23:26:12.760Z,84.72
2023-08-15T23:28:36.438Z,85.56
2023-08-15T23:31:00.196Z,89.38
2023-08-15T23:33:24.476Z,84.62
2023-08-15T23:35:49.583Z,86.35
2023-08-15T23:38:13.168Z,86.95
2023-08-15T23:40:38.017Z,84.93
2023-08-15T23:43:01.641Z,84.51
2023-08-15T23:45:25.325Z,83.40
2023-08-15T23:47:49.044Z,87.49
2023-08-15T23:50:13.406Z,86.01
2023-08-15T23:52:38.559Z,87.43
2023-08-15T23:55:02.296Z,85.93
2023-08-15T23:57:26.698Z,85.84
2023-08-15T23:59:50.644Z,87.16
